createdAt,value
2019-03-20T00:04:50.980Z,73.75
2019-03-20T00:09:52.578Z,73.50
2019-03-20T00:14:54.150Z,73.27
2019-03-20T00:19:55.769Z,73.09
2019-03-20T00:24:57.361Z,72.92
2019-03-20T00:29:59.024Z,72.79
2019-03-20T00:35:01.499Z,72.75
2019-03-20T00:40:04.011Z,72.65
2019-03-20T00:45:06.848Z,72.49
2019-03-20T00:50:10.973Z,72.44
2019-03-20T00:55:12.503Z,72.63
2019-03-20T01:00:15.497Z,72.49
2019-03-20T01:05:17.038Z,72.31
2019-03-20T01:10:18.713Z,72.35
2019-03-20T01:15:20.681Z,72.38
2019-03-20T01:20:22.274Z,72.51
2019-03-20T01:25:23.822Z,72.51
2019-03-20T01:30:25.395Z,72.73
2019-03-20T01:35:27.339Z,72.49
2019-03-20T01:40:28.998Z,72.28
2019-03-20T01:45:30.542Z,72.42
2019-03-20T01:50:32.113Z,72.59
2019-03-20T01:55:33.707Z,72.59
2019-03-20T02:00:35.295Z,72.50
2019-03-20T02:05:36.868Z,72.57
2019-03-20T02:10:38.489Z,72.68
2019-03-20T02:15:40.160Z,72.84
2019-03-20T02:20:43.141Z,72.80
2019-03-20T02:25:44.709Z,72.73
2019-03-20T02:30:46.357Z,72.76
2019-03-20T02:35:51.814Z,72.92
2019-03-20T02:40:51.539Z,72.93
2019-03-20T02:45:53.562Z,73.18
2019-03-20T02:50:55.125Z,73.15
2019-03-20T02:55:56.769Z,73.36
2019-03-20T03:00:58.375Z,73.73
2019-03-20T03:06:06.877Z,73.65
2019-03-20T03:11:03.579Z,73.35
2019-03-20T03:16:05.185Z,73.22
2019-03-20T03:21:06.802Z,73.11
2019-03-20T03:26:09.139Z,73.19
2019-03-20T03:31:10.718Z,73.11
2019-03-20T03:36:21.355Z,73.21
2019-03-20T03:41:16.701Z,73.14
2019-03-20T03:46:18.292Z,73.35
2019-03-20T03:51:20.206Z,73.34
2019-03-20T03:56:22.186Z,73.54
2019-03-20T04:01:23.778Z,73.53
2019-03-20T04:06:35.600Z,73.55
2019-03-20T04:11:29.585Z,73.57
2019-03-20T04:16:31.687Z,73.83
2019-03-20T04:21:33.244Z,73.98
2019-03-20T04:26:35.190Z,74.23
2019-03-20T04:31:36.776Z,74.32
2019-03-20T04:36:47.258Z,74.36
2019-03-20T04:41:43.120Z,74.27
2019-03-20T04:46:45.069Z,74.14
2019-03-20T04:51:47.640Z,74.22
2019-03-20T04:56:49.314Z,73.99
2019-03-20T05:01:51.050Z,73.99
2019-03-20T05:06:58.685Z,74.13
2019-03-20T05:11:56.105Z,74.18
2019-03-20T05:16:57.721Z,74.00
2019-03-20T05:21:59.274Z,74.42
2019-03-20T05:27:00.895Z,74.33
2019-03-20T05:32:02.496Z,74.31
2019-03-20T05:37:10.413Z,74.24
2019-03-20T05:42:07.891Z,74.94
2019-03-20T05:47:10.476Z,74.79
2019-03-20T05:52:12.144Z,74.61
2019-03-20T05:57:14.143Z,74.42
2019-03-20T06:02:15.978Z,74.43
2019-03-20T06:07:21.795Z,77.51
2019-03-20T06:12:23.221Z,75.69
2019-03-20T06:17:24.818Z,75.06
2019-03-20T06:22:26.470Z,74.69
2019-03-20T06:27:28.409Z,74.45
2019-03-20T06:32:30.049Z,74.44
2019-03-20T06:37:32.869Z,74.36
2019-03-20T06:42:34.705Z,74.75
2019-03-20T06:47:36.572Z,74.44
2019-03-20T06:52:38.177Z,74.05
2019-03-20T06:57:39.735Z,74.31
2019-03-20T07:02:46.648Z,74.36
2019-03-20T07:07:48.653Z,74.70
2019-03-20T07:12:53.267Z,74.44
2019-03-20T07:17:55.145Z,74.16
2019-03-20T07:22:56.755Z,74.00
2019-03-20T07:27:58.353Z,73.87
2019-03-20T07:32:59.954Z,74.73
2019-03-20T07:38:01.652Z,73.54
2019-03-20T07:43:08.838Z,74.39
2019-03-20T07:48:07.115Z,73.49
2019-03-20T07:53:08.836Z,73.46
2019-03-20T07:58:10.433Z,73.63
2019-03-20T08:03:12.356Z,72.76
2019-03-20T08:08:13.942Z,72.68
2019-03-20T08:13:15.574Z,72.35
2019-03-20T08:18:17.895Z,73.27
2019-03-20T08:23:19.767Z,71.93
2019-03-20T08:28:21.384Z,70.98
2019-03-20T08:33:23.053Z,70.87
2019-03-20T08:38:24.709Z,70.65
2019-03-20T08:43:26.360Z,71.07
2019-03-20T08:48:27.927Z,71.72
2019-03-20T08:53:29.495Z,71.62
2019-03-20T08:58:31.197Z,72.10
2019-03-20T09:03:32.903Z,71.58
2019-03-20T09:08:34.900Z,71.30
2019-03-20T09:13:36.548Z,70.37
2019-03-20T09:18:38.207Z,70.51
2019-03-20T09:23:40.950Z,70.46
2019-03-20T09:28:42.659Z,69.42
2019-03-20T09:33:44.613Z,70.42
2019-03-20T09:38:46.197Z,69.70
2019-03-20T09:43:48.175Z,69.54
2019-03-20T09:48:50.173Z,69.57
2019-03-20T09:53:51.927Z,69.17
2019-03-20T09:58:53.474Z,69.13
2019-03-20T10:03:55.062Z,69.66
2019-03-20T10:08:56.697Z,69.45
2019-03-20T10:13:58.354Z,69.49
2019-03-20T10:19:00.430Z,69.08
2019-03-20T10:24:02.081Z,69.58
2019-03-20T10:29:03.686Z,69.31
2019-03-20T10:34:05.327Z,69.40
2019-03-20T10:39:07.470Z,69.13
2019-03-20T10:44:09.120Z,69.57
2019-03-20T10:49:11.410Z,69.72
2019-03-20T10:54:13.128Z,68.75
2019-03-20T10:59:14.747Z,68.76
2019-03-20T11:04:16.727Z,69.21
2019-03-20T11:09:18.817Z,69.85
2019-03-20T11:14:20.689Z,70.21
2019-03-20T11:19:22.794Z,70.57
2019-03-20T11:24:24.487Z,70.65
2019-03-20T11:29:26.203Z,69.63
2019-03-20T11:34:27.751Z,69.82
2019-03-20T11:39:30.135Z,68.99
2019-03-20T11:44:31.810Z,69.14
2019-03-20T11:49:33.478Z,68.25
2019-03-20T11:54:35.170Z,68.48
2019-03-20T11:59:36.955Z,68.01
2019-03-20T12:04:38.547Z,68.17
2019-03-20T12:09:41.214Z,67.91
2019-03-20T12:14:43.266Z,68.41
2019-03-20T12:19:46.022Z,68.36
2019-03-20T12:24:47.609Z,69.54
2019-03-20T12:29:50.050Z,69.08
2019-03-20T12:34:51.714Z,69.41
2019-03-20T12:39:54.191Z,69.47
2019-03-20T12:44:55.790Z,68.91
2019-03-20T12:49:57.389Z,68.82
2019-03-20T12:54:59.356Z,68.20
2019-03-20T13:00:01.829Z,68.13
2019-03-20T13:05:04.160Z,68.80
2019-03-20T13:10:07.462Z,68.92
2019-03-20T13:15:11.924Z,68.40
2019-03-20T13:20:13.797Z,68.43
2019-03-20T13:25:15.517Z,67.89
2019-03-20T13:30:20.647Z,67.62
2019-03-20T13:35:22.480Z,67.67
2019-03-20T13:40:24.488Z,67.42
2019-03-20T13:45:26.235Z,67.50
2019-03-20T13:50:27.833Z,68.17
2019-03-20T13:55:29.389Z,67.86
2019-03-20T14:00:31.068Z,67.63
2019-03-20T14:05:33.440Z,67.61
2019-03-20T14:10:49.605Z,67.71
2019-03-20T14:15:38.695Z,68.01
2019-03-20T14:20:40.724Z,67.38
2019-03-20T14:25:42.406Z,67.39
2019-03-20T14:30:44.013Z,67.01
2019-03-20T14:35:45.961Z,67.34
2019-03-20T14:40:47.654Z,67.41
2019-03-20T14:45:52.430Z,67.63
2019-03-20T14:50:54.044Z,67.95
2019-03-20T14:55:55.819Z,68.10
2019-03-20T15:00:57.799Z,67.53
2019-03-20T15:06:01.430Z,67.88
2019-03-20T15:11:04.290Z,67.15
2019-03-20T15:16:09.072Z,68.28
2019-03-20T15:21:10.779Z,68.19
2019-03-20T15:26:13.020Z,67.43
2019-03-20T15:31:14.615Z,67.84
2019-03-20T15:36:17.168Z,68.03
2019-03-20T15:41:18.793Z,68.72
2019-03-20T15:46:21.443Z,68.63
2019-03-20T15:51:23.066Z,69.71
2019-03-20T15:56:24.707Z,70.53
2019-03-20T16:01:26.730Z,70.42
2019-03-20T16:06:28.761Z,70.04
2019-03-20T16:11:30.395Z,69.81
2019-03-20T16:16:32.158Z,69.92
2019-03-20T16:21:35.323Z,70.60
2019-03-20T16:26:36.904Z,70.38
2019-03-20T16:31:38.537Z,70.22
2019-03-20T16:36:40.195Z,70.22
2019-03-20T16:41:42.721Z,70.88
2019-03-20T16:46:44.863Z,70.94
2019-03-20T16:51:47.793Z,71.22
2019-03-20T16:56:49.930Z,71.67
2019-03-20T17:01:51.793Z,71.72
2019-03-20T17:06:53.529Z,71.85
2019-03-20T17:11:55.753Z,71.83
2019-03-20T17:16:57.945Z,71.96
2019-03-20T17:22:00.041Z,72.18
2019-03-20T17:27:02.409Z,72.33
2019-03-20T17:32:04.338Z,72.43
2019-03-20T17:37:06.791Z,72.58
2019-03-20T17:42:08.724Z,72.78
2019-03-20T17:47:10.568Z,72.81
2019-03-20T17:52:12.192Z,72.94
2019-03-20T17:57:14.618Z,73.00
2019-03-20T18:02:23.590Z,73.43
2019-03-20T18:07:21.095Z,73.56
2019-03-20T18:12:23.029Z,73.89
2019-03-20T18:17:24.742Z,74.24
2019-03-20T18:22:26.497Z,74.68
2019-03-20T18:27:28.987Z,74.58
2019-03-20T18:32:30.578Z,74.99
2019-03-20T18:37:32.193Z,75.20
2019-03-20T18:42:34.101Z,74.88
2019-03-20T18:47:36.270Z,75.09
2019-03-20T18:52:38.590Z,75.30
2019-03-20T18:57:40.848Z,75.00
2019-03-20T19:02:42.487Z,74.92
2019-03-20T19:07:44.268Z,74.85
2019-03-20T19:12:46.382Z,74.87
2019-03-20T19:17:48.600Z,75.00
2019-03-20T19:22:51.003Z,74.86
2019-03-20T19:27:52.634Z,75.02
2019-03-20T19:32:54.578Z,75.04
2019-03-20T19:37:56.604Z,74.96
2019-03-20T19:42:58.409Z,74.77
2019-03-20T19:48:00.311Z,74.50
2019-03-20T19:53:02.286Z,74.41
2019-03-20T19:58:04.240Z,74.51
2019-03-20T20:03:05.898Z,74.47
2019-03-20T20:08:08.005Z,74.51
2019-03-20T20:13:09.739Z,74.66
2019-03-20T20:18:12.331Z,74.91
2019-03-20T20:23:14.497Z,75.04
2019-03-20T20:28:16.228Z,75.18
2019-03-20T20:33:19.393Z,75.38
2019-03-20T20:38:20.962Z,75.53
2019-03-20T20:43:22.582Z,75.65
2019-03-20T20:48:24.404Z,75.67
2019-03-20T20:53:26.090Z,75.80
2019-03-20T20:58:28.016Z,76.02
2019-03-20T21:03:29.709Z,76.27
2019-03-20T21:08:32.390Z,76.32
2019-03-20T21:13:34.149Z,76.67
2019-03-20T21:19:15.216Z,76.91
2019-03-20T21:24:21.594Z,76.89
2019-03-20T21:30:13.304Z,76.87
2019-03-20T21:36:08.958Z,77.10
2019-03-20T21:41:55.697Z,77.18
2019-03-20T21:47:26.693Z,77.02
2019-03-20T21:52:28.962Z,77.17
2019-03-20T21:58:02.366Z,77.08
2019-03-20T22:03:04.577Z,77.45
2019-03-20T22:08:08.546Z,77.67
2019-03-20T22:13:19.084Z,77.74
2019-03-20T22:18:57.628Z,77.97
2019-03-20T22:24:36.869Z,77.91
2019-03-20T22:29:39.052Z,78.11
2019-03-20T22:34:54.867Z,78.13
2019-03-20T22:40:52.330Z,78.44
2019-03-20T22:46:37.544Z,78.60
2019-03-20T22:51:57.589Z,78.54
2019-03-20T22:57:33.412Z,78.50
2019-03-20T23:02:57.808Z,78.65
2019-03-20T23:07:59.901Z,78.72
2019-03-20T23:13:02.119Z,79.36
2019-03-20T23:18:04.314Z,79.45
2019-03-20T23:23:06.564Z,79.17
2019-03-20T23:28:08.704Z,79.19
2019-03-20T23:33:10.958Z,79.11
2019-03-20T23:38:13.062Z,79.10
2019-03-20T23:43:15.263Z,78.93
2019-03-20T23:48:24.699Z,79.06
2019-03-20T23:53:26.876Z,78.81
2019-03-20T23:58:29.073Z,78.64
